createdAt,value
2023-03-11T00:01:11.741Z,1.50
2023-03-11T00:03:38.187Z,1.58
2023-03-11T00:06:04.758Z,1.48
2023-03-11T00:08:32.299Z,2.45
2023-03-11T00:11:00.480Z,3.03
2023-03-11T00:13:28.890Z,0.75
2023-03-11T00:15:56.541Z,1.67
2023-03-11T00:18:30.026Z,0.73
2023-03-11T00:20:57.736Z,3.80
2023-03-11T00:23:25.292Z,1.60
2023-03-11T00:25:52.576Z,0.88
2023-03-11T00:28:19.091Z,3.55
2023-03-11T00:30:46.477Z,1.38
2023-03-11T00:33:15.041Z,2.72
2023-03-11T00:35:42.905Z,2.37
2023-03-11T00:38:13.120Z,1.50
2023-03-11T00:40:40.017Z,2.45
2023-03-11T00:43:06.365Z,1.98
2023-03-11T00:45:33.664Z,3.03
2023-03-11T00:48:00.269Z,1.43
2023-03-11T00:50:32.149Z,1.00
2023-03-11T00:52:59.791Z,1.50
2023-03-11T00:55:30.281Z,2.45
2023-03-11T00:57:59.985Z,2.90
2023-03-11T01:00:28.319Z,3.50
2023-03-11T01:02:56.383Z,1.88
2023-03-11T01:05:26.199Z,3.17
2023-03-11T01:07:52.696Z,3.33
2023-03-11T01:10:19.325Z,5.30
2023-03-11T01:12:45.853Z,2.13
2023-03-11T01:15:25.587Z,2.13
2023-03-11T01:17:52.025Z,2.00
2023-03-11T01:20:18.481Z,4.05
2023-03-11T01:22:44.960Z,4.57
2023-03-11T01:25:16.659Z,2.73
2023-03-11T01:27:43.198Z,4.35
2023-03-11T01:30:14.420Z,4.13
2023-03-11T01:32:40.829Z,3.95
2023-03-11T01:35:07.644Z,4.95
2023-03-11T01:37:34.030Z,2.93
2023-03-11T01:40:00.357Z,2.28
2023-03-11T01:42:26.704Z,2.63
2023-03-11T01:44:53.060Z,3.85
2023-03-11T01:47:35.897Z,1.67
2023-03-11T01:50:05.484Z,2.50
2023-03-11T01:52:31.863Z,3.42
2023-03-11T01:54:58.228Z,3.88
2023-03-11T01:57:24.633Z,3.85
2023-03-11T01:59:55.740Z,3.70
2023-03-11T02:02:45.555Z,4.07
2023-03-11T02:05:12.063Z,5.07
2023-03-11T02:07:40.227Z,4.93
2023-03-11T02:10:07.465Z,5.53
2023-03-11T02:12:36.651Z,4.15
2023-03-11T02:15:04.577Z,8.10
2023-03-11T02:17:31.546Z,3.38
2023-03-11T02:20:42.444Z,5.05
2023-03-11T02:23:09.766Z,5.63
2023-03-11T02:25:40.113Z,5.30
2023-03-11T02:28:10.385Z,2.97
2023-03-11T02:30:39.643Z,3.00
2023-03-11T02:33:06.444Z,7.43
2023-03-11T02:35:32.875Z,3.70
2023-03-11T02:37:59.246Z,1.83
2023-03-11T02:40:27.185Z,7.23
2023-03-11T02:43:03.492Z,5.50
2023-03-11T02:45:30.704Z,4.97
2023-03-11T02:47:59.394Z,4.03
2023-03-11T02:50:28.311Z,3.50
2023-03-11T02:52:54.737Z,3.93
2023-03-11T02:55:21.695Z,2.33
2023-03-11T02:57:48.469Z,4.65
2023-03-11T03:00:16.674Z,3.13
2023-03-11T03:02:44.839Z,4.88
2023-03-11T03:05:12.039Z,5.10
2023-03-11T03:07:38.923Z,5.38
2023-03-11T03:10:06.860Z,5.65
2023-03-11T03:12:33.193Z,4.80
2023-03-11T03:14:59.555Z,4.45
2023-03-11T03:17:26.112Z,4.33
2023-03-11T03:19:52.491Z,5.72
2023-03-11T03:22:18.868Z,5.75
2023-03-11T03:24:45.459Z,3.50
2023-03-11T03:27:11.800Z,5.97
2023-03-11T03:29:38.153Z,3.97
2023-03-11T03:32:04.739Z,3.40
2023-03-11T03:34:31.098Z,5.70
2023-03-11T03:36:57.441Z,3.38
2023-03-11T03:39:23.858Z,8.50
2023-03-11T03:41:50.222Z,8.57
2023-03-11T03:44:16.584Z,3.65
2023-03-11T03:46:42.915Z,5.80
2023-03-11T03:49:09.482Z,7.75
2023-03-11T03:51:35.961Z,6.03
2023-03-11T03:54:02.346Z,6.60
2023-03-11T03:56:28.704Z,3.63
2023-03-11T03:58:55.093Z,4.63
2023-03-11T04:01:21.595Z,8.57
2023-03-11T04:03:48.155Z,4.82
2023-03-11T04:06:23.959Z,4.23
2023-03-11T04:08:54.442Z,6.47
2023-03-11T04:11:21.319Z,5.72
2023-03-11T04:13:48.076Z,6.00
2023-03-11T04:16:20.615Z,6.00
2023-03-11T04:18:47.933Z,7.13
2023-03-11T04:21:14.424Z,9.65
2023-03-11T04:23:40.837Z,5.85
2023-03-11T04:26:07.334Z,7.40
2023-03-11T04:28:33.685Z,5.60
2023-03-11T04:31:00.060Z,5.43
2023-03-11T04:33:26.509Z,8.90
2023-03-11T04:35:52.883Z,10.35
2023-03-11T04:38:19.302Z,6.35
2023-03-11T04:40:45.672Z,5.93
2023-03-11T04:43:12.045Z,9.93
2023-03-11T04:45:39.563Z,6.07
2023-03-11T04:48:05.967Z,4.50
2023-03-11T04:50:32.753Z,8.23
2023-03-11T04:52:59.137Z,6.15
2023-03-11T04:55:25.673Z,3.43
2023-03-11T04:57:52.184Z,5.75
2023-03-11T05:00:22.923Z,3.65
2023-03-11T05:02:49.277Z,6.82
2023-03-11T05:05:16.497Z,4.95
2023-03-11T05:07:42.878Z,4.47
2023-03-11T05:10:09.921Z,5.15
2023-03-11T05:12:36.271Z,5.28
2023-03-11T05:15:02.697Z,5.32
2023-03-11T05:17:29.042Z,4.40
2023-03-11T05:19:55.425Z,4.63
2023-03-11T05:22:22.280Z,5.85
2023-03-11T05:24:48.828Z,7.22
2023-03-11T05:27:19.841Z,5.65
2023-03-11T05:29:46.816Z,3.28
2023-03-11T05:32:13.654Z,2.87
2023-03-11T05:34:40.657Z,3.20
2023-03-11T05:37:07.610Z,4.03
2023-03-11T05:39:34.423Z,3.72
2023-03-11T05:42:01.043Z,5.88
2023-03-11T05:44:27.573Z,3.00
2023-03-11T05:46:54.018Z,3.90
2023-03-11T05:49:21.546Z,10.13
2023-03-11T05:51:48.923Z,5.28
2023-03-11T05:54:15.912Z,5.03
2023-03-11T05:56:44.734Z,3.33
2023-03-11T05:59:15.083Z,4.65
2023-03-11T06:01:43.242Z,6.80
2023-03-11T06:04:10.657Z,2.45
2023-03-11T06:06:38.636Z,3.50
2023-03-11T06:09:04.998Z,5.93
2023-03-11T06:11:31.471Z,6.32
2023-03-11T06:13:58.414Z,3.33
2023-03-11T06:16:25.524Z,4.13
2023-03-11T06:18:52.181Z,3.53
2023-03-11T06:21:21.805Z,3.50
2023-03-11T06:23:48.626Z,4.95
2023-03-11T06:26:18.264Z,3.13
2023-03-11T06:28:45.134Z,2.40
2023-03-11T06:31:17.384Z,5.30
2023-03-11T06:33:43.938Z,3.97
2023-03-11T06:36:15.943Z,3.17
2023-03-11T06:38:43.164Z,6.47
2023-03-11T06:41:09.983Z,6.43
2023-03-11T06:43:36.501Z,7.57
2023-03-11T06:46:09.225Z,3.07
2023-03-11T06:48:35.603Z,4.40
2023-03-11T06:51:01.976Z,3.75
2023-03-11T06:53:29.611Z,7.22
2023-03-11T06:56:12.769Z,3.83
2023-03-11T06:58:40.878Z,3.13
2023-03-11T07:01:08.736Z,1.83
2023-03-11T07:03:35.157Z,1.30
2023-03-11T07:06:01.852Z,4.65
2023-03-11T07:08:28.973Z,3.65
2023-03-11T07:11:08.437Z,6.33
2023-03-11T07:13:35.490Z,6.15
2023-03-11T07:16:04.258Z,3.95
2023-03-11T07:18:30.914Z,4.05
2023-03-11T07:20:57.379Z,3.60
2023-03-11T07:23:23.874Z,2.50
2023-03-11T07:25:51.750Z,4.07
2023-03-11T07:28:18.962Z,5.20
2023-03-11T07:30:46.575Z,2.60
2023-03-11T07:33:13.645Z,4.32
2023-03-11T07:35:40.440Z,5.00
2023-03-11T07:38:07.201Z,3.25
2023-03-11T07:40:33.595Z,7.38
2023-03-11T07:43:00.027Z,12.80
2023-03-11T07:45:26.449Z,2.75
2023-03-11T07:47:52.786Z,6.50
2023-03-11T07:50:22.057Z,3.20
2023-03-11T07:52:48.653Z,4.68
2023-03-11T07:55:15.593Z,3.40
2023-03-11T07:57:42.665Z,3.78
2023-03-11T08:00:10.400Z,2.37
2023-03-11T08:02:36.774Z,3.55
2023-03-11T08:05:03.166Z,2.88
2023-03-11T08:07:31.705Z,5.68
2023-03-11T08:09:58.496Z,5.15
2023-03-11T08:12:24.927Z,5.40
2023-03-11T08:14:51.273Z,3.28
2023-03-11T08:17:17.615Z,4.38
2023-03-11T08:19:44.019Z,5.72
2023-03-11T08:22:10.356Z,4.75
2023-03-11T08:24:36.718Z,3.00
2023-03-11T08:27:03.095Z,3.65
2023-03-11T08:29:29.484Z,4.93
2023-03-11T08:31:55.857Z,3.20
2023-03-11T08:34:22.349Z,2.58
2023-03-11T08:36:48.934Z,4.60
2023-03-11T08:39:15.427Z,1.63
2023-03-11T08:41:41.858Z,3.83
2023-03-11T08:44:08.273Z,4.28
2023-03-11T08:46:38.577Z,3.58
2023-03-11T08:49:06.152Z,4.40
2023-03-11T08:51:34.301Z,3.08
2023-03-11T08:54:01.622Z,3.05
2023-03-11T08:56:28.357Z,2.60
2023-03-11T08:58:54.711Z,5.03
2023-03-11T09:01:22.860Z,3.93
2023-03-11T09:03:49.286Z,5.65
2023-03-11T09:06:16.968Z,3.85
2023-03-11T09:08:44.760Z,3.13
2023-03-11T09:11:13.374Z,2.45
2023-03-11T09:13:41.379Z,3.23
2023-03-11T09:16:12.082Z,2.85
2023-03-11T09:18:38.489Z,3.67
2023-03-11T09:21:05.042Z,2.33
2023-03-11T09:23:31.767Z,2.42
2023-03-11T09:25:58.114Z,4.07
2023-03-11T09:28:24.446Z,5.80
2023-03-11T09:30:50.870Z,2.60
2023-03-11T09:33:17.256Z,5.85
2023-03-11T09:35:43.699Z,3.00
2023-03-11T09:38:10.147Z,3.73
2023-03-11T09:40:56.208Z,2.20
2023-03-11T09:43:29.060Z,4.13
2023-03-11T09:46:08.347Z,6.55
2023-03-11T09:48:47.745Z,3.88
2023-03-11T09:51:30.103Z,4.40
2023-03-11T09:54:06.396Z,4.25
2023-03-11T09:56:35.406Z,4.05
2023-03-11T09:59:07.798Z,8.10
2023-03-11T10:01:37.422Z,1.55
2023-03-11T10:04:10.853Z,3.90
2023-03-11T10:06:39.421Z,1.52
2023-03-11T10:09:33.222Z,3.53
2023-03-11T10:12:06.509Z,0.95
2023-03-11T10:14:42.718Z,1.70
2023-03-11T10:17:26.960Z,2.07
2023-03-11T10:20:10.757Z,2.80
2023-03-11T10:22:54.471Z,4.32
2023-03-11T10:25:30.162Z,2.88
2023-03-11T10:28:09.882Z,2.25
2023-03-11T10:30:50.156Z,2.20
2023-03-11T10:33:34.970Z,7.38
2023-03-11T10:36:09.686Z,3.30
2023-03-11T10:38:42.361Z,2.13
2023-03-11T10:41:31.968Z,2.67
2023-03-11T10:44:10.844Z,2.50
2023-03-11T10:46:37.191Z,4.68
2023-03-11T10:49:05.505Z,5.50
2023-03-11T10:51:35.013Z,4.18
2023-03-11T10:54:03.438Z,3.13
2023-03-11T10:56:39.350Z,2.53
2023-03-11T10:59:23.717Z,2.75
2023-03-11T11:02:01.928Z,2.58
2023-03-11T11:04:37.130Z,2.90
2023-03-11T11:07:30.407Z,12.48
2023-03-11T11:10:11.935Z,3.23
2023-03-11T11:12:54.236Z,7.07
2023-03-11T11:15:26.592Z,3.05
2023-03-11T11:17:55.624Z,3.00
2023-03-11T11:20:24.098Z,4.53
2023-03-11T11:22:54.421Z,3.60
2023-03-11T11:25:26.912Z,2.80
2023-03-11T11:28:01.620Z,4.97
2023-03-11T11:30:29.122Z,2.58
2023-03-11T11:32:55.770Z,4.20
2023-03-11T11:35:25.572Z,4.87
2023-03-11T11:38:01.313Z,2.17
2023-03-11T11:40:32.565Z,5.18
2023-03-11T11:43:06.446Z,1.27
2023-03-11T11:45:32.755Z,2.28
2023-03-11T11:48:04.568Z,1.80
2023-03-11T11:50:42.739Z,4.88
2023-03-11T11:53:15.735Z,3.28
2023-03-11T11:55:48.237Z,2.10
2023-03-11T11:58:14.813Z,3.67
2023-03-11T12:00:53.483Z,3.53
2023-03-11T12:03:45.490Z,2.75
2023-03-11T12:06:25.387Z,1.83
2023-03-11T12:09:24.210Z,3.63
2023-03-11T12:12:01.161Z,2.58
2023-03-11T12:14:49.609Z,3.80
2023-03-11T12:17:19.571Z,3.55
2023-03-11T12:19:59.986Z,2.97
2023-03-11T12:22:55.780Z,2.30
2023-03-11T12:26:00.962Z,7.10
2023-03-11T12:28:42.351Z,6.73
2023-03-11T12:31:11.342Z,2.15
2023-03-11T12:33:43.383Z,1.85
2023-03-11T12:36:23.996Z,1.90
2023-03-11T12:38:51.975Z,2.60
2023-03-11T12:41:29.531Z,4.93
2023-03-11T12:43:59.368Z,2.17
2023-03-11T12:46:54.618Z,2.78
2023-03-11T12:49:35.189Z,3.53
2023-03-11T12:52:09.143Z,4.30
2023-03-11T12:54:42.535Z,2.13
2023-03-11T12:57:17.834Z,3.42
2023-03-11T13:00:23.045Z,2.85
2023-03-11T13:03:26.571Z,3.15
2023-03-11T13:06:14.645Z,2.17
2023-03-11T13:08:54.711Z,5.67
2023-03-11T13:11:33.153Z,3.63
2023-03-11T13:14:32.911Z,3.53
2023-03-11T13:17:25.781Z,4.43
2023-03-11T13:19:56.760Z,3.78
2023-03-11T13:22:43.505Z,1.57
2023-03-11T13:25:27.505Z,4.25
2023-03-11T13:28:07.962Z,2.33
2023-03-11T13:30:38.910Z,1.23
2023-03-11T13:33:36.694Z,2.80
2023-03-11T13:36:18.258Z,2.47
2023-03-11T13:38:47.601Z,4.72
2023-03-11T13:41:26.754Z,4.97
2023-03-11T13:43:55.544Z,2.95
2023-03-11T13:46:30.939Z,1.50
2023-03-11T13:49:06.250Z,2.50
2023-03-11T13:51:40.171Z,3.92
2023-03-11T13:54:29.309Z,2.85
2023-03-11T13:56:58.970Z,4.32
2023-03-11T13:59:27.254Z,2.95
2023-03-11T14:02:00.713Z,2.97
2023-03-11T14:04:34.482Z,4.50
2023-03-11T14:07:12.709Z,1.25
2023-03-11T14:09:39.198Z,2.75
2023-03-11T14:12:10.121Z,6.10
2023-03-11T14:14:48.959Z,2.73
2023-03-11T14:17:17.475Z,1.85
2023-03-11T14:20:01.494Z,1.60
2023-03-11T14:22:27.890Z,2.50
2023-03-11T14:24:54.407Z,4.82
2023-03-11T14:27:20.809Z,2.80
2023-03-11T14:29:48.205Z,2.97
2023-03-11T14:32:29.622Z,2.58
2023-03-11T14:34:56.956Z,4.43
2023-03-11T14:37:30.929Z,2.53
2023-03-11T14:39:57.294Z,3.60
2023-03-11T14:42:33.881Z,3.28
2023-03-11T14:45:05.137Z,2.00
2023-03-11T14:47:46.933Z,2.63
2023-03-11T14:50:25.628Z,3.05
2023-03-11T14:53:12.212Z,3.83
2023-03-11T14:55:50.942Z,2.53
2023-03-11T14:58:31.420Z,3.15
2023-03-11T15:01:12.885Z,1.67
2023-03-11T15:03:50.838Z,3.45
2023-03-11T15:06:19.865Z,4.53
2023-03-11T15:08:49.370Z,3.63
2023-03-11T15:11:16.274Z,2.03
2023-03-11T15:13:47.190Z,3.10
2023-03-11T15:16:31.760Z,3.05
2023-03-11T15:19:31.323Z,2.80
2023-03-11T15:22:06.374Z,3.65
2023-03-11T15:24:33.949Z,2.25
2023-03-11T15:27:06.780Z,3.05
2023-03-11T15:29:34.724Z,2.50
2023-03-11T15:32:37.416Z,3.03
2023-03-11T15:35:21.727Z,4.65
2023-03-11T15:37:49.715Z,5.18
2023-03-11T15:40:38.643Z,3.53
2023-03-11T15:43:16.383Z,8.55
2023-03-11T15:45:44.014Z,3.30
2023-03-11T15:48:12.042Z,0.95
2023-03-11T15:50:53.392Z,4.60
2023-03-11T15:53:21.162Z,2.38
2023-03-11T15:55:48.089Z,3.65
2023-03-11T15:58:16.895Z,7.33
2023-03-11T16:00:49.298Z,3.83
2023-03-11T16:03:16.266Z,4.85
2023-03-11T16:05:42.716Z,2.88
2023-03-11T16:08:09.385Z,5.55
2023-03-11T16:10:36.640Z,6.47
2023-03-11T16:13:03.099Z,3.40
2023-03-11T16:15:35.256Z,6.97
2023-03-11T16:18:04.789Z,2.58
2023-03-11T16:20:37.125Z,3.28
2023-03-11T16:23:03.834Z,3.43
2023-03-11T16:25:35.947Z,5.03
2023-03-11T16:28:02.989Z,2.80
2023-03-11T16:30:34.050Z,3.60
2023-03-11T16:33:04.017Z,2.40
2023-03-11T16:35:31.193Z,2.83
2023-03-11T16:37:57.529Z,2.83
2023-03-11T16:40:26.696Z,2.22
2023-03-11T16:43:02.304Z,2.22
2023-03-11T16:45:29.325Z,1.85
2023-03-11T16:47:55.782Z,3.00
2023-03-11T16:50:24.270Z,1.35
2023-03-11T16:52:51.598Z,4.05
2023-03-11T16:55:18.091Z,4.90
2023-03-11T16:57:44.952Z,1.73
2023-03-11T17:00:13.386Z,3.57
2023-03-11T17:02:39.819Z,3.17
2023-03-11T17:05:07.664Z,2.40
2023-03-11T17:07:34.701Z,2.38
2023-03-11T17:10:02.040Z,3.40
2023-03-11T17:12:28.426Z,3.43
2023-03-11T17:14:55.438Z,2.90
2023-03-11T17:17:22.599Z,2.60
2023-03-11T17:19:49.092Z,3.47
2023-03-11T17:22:16.208Z,12.82
2023-03-11T17:24:42.809Z,5.70
2023-03-11T17:27:09.424Z,6.53
2023-03-11T17:29:35.916Z,8.80
2023-03-11T17:32:03.505Z,5.85
2023-03-11T17:34:29.839Z,8.30
2023-03-11T17:36:56.542Z,12.20
2023-03-11T17:39:22.916Z,8.02
2023-03-11T17:41:49.385Z,9.77
2023-03-11T17:44:15.732Z,7.10
2023-03-11T17:46:42.309Z,8.93
2023-03-11T17:49:13.537Z,10.93
2023-03-11T17:51:40.226Z,12.98
2023-03-11T17:54:06.702Z,10.55
2023-03-11T17:56:33.061Z,10.80
2023-03-11T17:58:59.439Z,6.18
2023-03-11T18:01:27.979Z,9.97
2023-03-11T18:03:54.753Z,11.38
2023-03-11T18:06:22.095Z,9.25
2023-03-11T18:08:48.537Z,10.60
2023-03-11T18:11:19.208Z,7.03
2023-03-11T18:13:45.902Z,4.43
2023-03-11T18:16:18.399Z,4.40
2023-03-11T18:18:45.006Z,5.90
2023-03-11T18:21:14.405Z,8.63
2023-03-11T18:23:41.681Z,5.65
2023-03-11T18:26:10.130Z,5.57
2023-03-11T18:28:36.540Z,6.95
2023-03-11T18:31:30.059Z,7.38
2023-03-11T18:34:00.204Z,8.40
2023-03-11T18:36:29.401Z,11.43
2023-03-11T18:38:57.519Z,17.50
2023-03-11T18:41:24.635Z,17.77
2023-03-11T18:43:57.290Z,12.68
2023-03-11T18:46:28.449Z,13.48
2023-03-11T18:48:57.556Z,20.35
2023-03-11T18:51:25.060Z,24.50
2023-03-11T18:53:51.406Z,24.95
2023-03-11T18:56:18.250Z,20.52
2023-03-11T18:58:44.875Z,17.13
2023-03-11T19:01:16.601Z,18.98
2023-03-11T19:03:44.641Z,18.33
2023-03-11T19:06:12.796Z,13.32
2023-03-11T19:08:39.710Z,6.93
2023-03-11T19:11:11.542Z,6.63
2023-03-11T19:13:46.735Z,10.38
2023-03-11T19:16:18.794Z,8.83
2023-03-11T19:18:45.757Z,11.13
2023-03-11T19:21:13.850Z,15.18
2023-03-11T19:23:40.215Z,13.77
2023-03-11T19:26:07.384Z,15.70
2023-03-11T19:28:34.321Z,13.33
2023-03-11T19:31:01.433Z,16.00
2023-03-11T19:33:28.157Z,11.32
2023-03-11T19:35:59.531Z,17.42
2023-03-11T19:38:27.241Z,20.63
2023-03-11T19:41:01.029Z,24.77
2023-03-11T19:43:27.967Z,20.50
2023-03-11T19:45:54.811Z,17.80
2023-03-11T19:48:21.369Z,19.25
2023-03-11T19:50:48.913Z,17.35
2023-03-11T19:53:15.953Z,16.63
2023-03-11T19:55:46.864Z,13.65
2023-03-11T19:58:13.389Z,15.68
2023-03-11T20:00:41.292Z,14.52
2023-03-11T20:03:11.557Z,19.60
2023-03-11T20:05:39.309Z,15.57
2023-03-11T20:08:07.289Z,16.67
2023-03-11T20:10:37.178Z,21.17
2023-03-11T20:13:03.585Z,19.30
2023-03-11T20:15:30.692Z,19.77
2023-03-11T20:17:57.422Z,20.10
2023-03-11T20:20:23.854Z,22.05
2023-03-11T20:22:50.197Z,16.58
2023-03-11T20:25:16.640Z,19.25
2023-03-11T20:27:43.217Z,18.40
2023-03-11T20:30:10.234Z,14.37
2023-03-11T20:32:36.661Z,15.35
2023-03-11T20:35:04.053Z,17.67
2023-03-11T20:37:31.215Z,17.17
2023-03-11T20:39:57.739Z,13.63
2023-03-11T20:42:24.154Z,13.80
2023-03-11T20:44:54.311Z,18.58
2023-03-11T20:47:21.832Z,18.77
2023-03-11T20:49:48.213Z,16.80
2023-03-11T20:52:14.764Z,21.52
2023-03-11T20:54:41.163Z,21.50
2023-03-11T20:57:07.877Z,29.15
2023-03-11T20:59:34.443Z,34.63
2023-03-11T21:02:01.051Z,31.40
2023-03-11T21:04:27.690Z,32.55
2023-03-11T21:06:55.390Z,26.90
2023-03-11T21:09:21.849Z,25.02
2023-03-11T21:11:48.386Z,27.42
2023-03-11T21:14:16.609Z,19.17
2023-03-11T21:16:44.964Z,16.95
2023-03-11T21:19:13.527Z,20.17
2023-03-11T21:21:40.667Z,23.83
2023-03-11T21:24:07.495Z,19.95
2023-03-11T21:26:33.925Z,21.95
2023-03-11T21:29:00.449Z,21.08
2023-03-11T21:31:29.286Z,21.97
2023-03-11T21:33:57.584Z,26.48
2023-03-11T21:36:24.085Z,23.23
2023-03-11T21:38:51.480Z,25.35
2023-03-11T21:41:21.397Z,22.35
2023-03-11T21:43:47.912Z,20.53
2023-03-11T21:46:17.099Z,28.45
2023-03-11T21:48:44.081Z,27.30
2023-03-11T21:51:10.651Z,28.27
2023-03-11T21:53:37.258Z,26.45
2023-03-11T21:56:04.377Z,26.17
2023-03-11T21:58:31.381Z,26.55
2023-03-11T22:00:57.973Z,23.52
2023-03-11T22:03:24.782Z,28.55
2023-03-11T22:06:02.345Z,23.67
2023-03-11T22:08:29.118Z,17.37
2023-03-11T22:10:55.887Z,14.73
2023-03-11T22:13:23.319Z,13.93
2023-03-11T22:15:49.815Z,13.02
2023-03-11T22:18:16.276Z,14.32
2023-03-11T22:20:43.280Z,11.93
2023-03-11T22:23:10.437Z,10.43
2023-03-11T22:25:36.850Z,9.27
2023-03-11T22:28:03.861Z,13.52
2023-03-11T22:30:30.633Z,13.60
2023-03-11T22:32:57.025Z,12.63
2023-03-11T22:35:23.426Z,18.50
2023-03-11T22:37:49.786Z,12.48
2023-03-11T22:40:16.208Z,14.50
2023-03-11T22:42:42.565Z,11.60
2023-03-11T22:45:09.188Z,7.03
2023-03-11T22:47:35.686Z,10.15
2023-03-11T22:50:02.186Z,8.13
2023-03-11T22:52:28.562Z,7.72
2023-03-11T22:54:55.060Z,9.95
2023-03-11T22:57:21.537Z,7.87
2023-03-11T22:59:47.874Z,6.18
2023-03-11T23:02:14.242Z,7.40
2023-03-11T23:04:44.221Z,7.20
2023-03-11T23:07:10.576Z,6.68
2023-03-11T23:09:36.944Z,6.23
2023-03-11T23:12:03.881Z,7.70
2023-03-11T23:14:43.578Z,6.63
2023-03-11T23:17:11.173Z,5.75
2023-03-11T23:19:37.538Z,5.72
2023-03-11T23:22:04.032Z,6.33
2023-03-11T23:24:30.391Z,6.90
2023-03-11T23:26:56.745Z,6.43
2023-03-11T23:29:23.115Z,7.25
2023-03-11T23:31:49.449Z,7.50
2023-03-11T23:34:15.791Z,5.43
2023-03-11T23:36:42.125Z,7.32
2023-03-11T23:39:08.482Z,6.50
2023-03-11T23:41:36.513Z,6.47
2023-03-11T23:44:02.885Z,5.43
2023-03-11T23:46:29.515Z,5.90
2023-03-11T23:48:55.917Z,5.93
2023-03-11T23:51:22.467Z,6.03
2023-03-11T23:53:48.902Z,5.75
2023-03-11T23:56:17.768Z,8.52
2023-03-11T23:58:45.113Z,6.57
